Time;durP1;ratioP1;P1;durP2;ratioP2;P2;SDS_P1;SDS_P2;PMS_P1;PMS_P2;Temp;Humidity;BMP_temperature;BMP_pressure;BME280_temperature;BME280_humidity;BME280_pressure;Samples;Min_cycle;Max_cycle;Signal;HPM_P1;HPM_P2
2021/10/13 00:01:08;;;;;;;3.85;2.95;;;9.80;75.00;;;9.21;60.41;94774.84;5034128;28;20211;-80
2021/10/13 00:03:35;;;;;;;4.53;3.20;;;9.80;74.90;;;9.15;60.53;94780.81;5050565;28;20239;-79
2021/10/13 00:06:02;;;;;;;3.88;3.40;;;9.80;74.90;;;9.12;60.40;94777.56;5033913;28;20203;-80
2021/10/13 00:08:29;;;;;;;4.68;3.38;;;9.70;74.90;;;9.09;60.53;94780.59;5049566;28;20615;-81
2021/10/13 00:10:56;;;;;;;3.22;2.92;;;9.70;75.70;;;9.08;60.45;94772.91;5034231;28;20302;-80
2021/10/13 00:13:24;;;;;;;3.72;3.05;;;9.70;75.00;;;9.07;60.73;94779.13;5030254;28;20251;-79
2021/10/13 00:15:51;;;;;;;4.18;3.25;;;9.70;75.10;;;9.01;60.55;94772.84;5027942;28;20732;-79
2021/10/13 00:18:18;;;;;;;3.60;3.30;;;9.70;75.90;;;9.06;60.50;94783.56;5033381;28;20262;-80
2021/10/13 00:20:45;;;;;;;5.65;3.70;;;9.70;75.20;;;9.00;60.68;94776.44;5033566;28;20210;-80
2021/10/13 00:23:13;;;;;;;4.22;3.50;;;9.60;75.00;;;9.06;60.58;94786.16;5034267;28;20731;-79
2021/10/13 00:25:40;;;;;;;5.80;3.95;;;9.70;75.20;;;9.05;60.57;94786.38;5050801;28;20230;-80
2021/10/13 00:28:07;;;;;;;4.00;3.58;;;9.60;75.20;;;9.03;60.55;94783.91;5033097;28;20290;-79
2021/10/13 00:30:35;;;;;;;4.65;3.95;;;9.60;75.20;;;9.04;60.69;94790.78;5033136;28;20199;-80
2021/10/13 00:33:03;;;;;;;5.10;4.60;;;9.70;76.10;;;9.01;60.43;94791.16;5033866;28;20214;-80
2021/10/13 00:35:30;;;;;;;6.00;4.38;;;9.60;75.20;;;9.03;60.56;94791.75;5049992;28;20210;-80
2021/10/13 00:37:57;;;;;;;6.10;4.85;;;9.60;75.40;;;9.02;60.91;94797.19;5063132;28;20227;-81
2021/10/13 00:40:24;;;;;;;7.93;4.90;;;9.60;75.50;;;9.03;60.83;94801.44;5050207;28;20714;-80
2021/10/13 00:42:52;;;;;;;4.82;4.28;;;9.60;75.30;;;9.02;60.84;94799.81;5035479;28;20224;-81
2021/10/13 00:45:19;;;;;;;5.03;4.53;;;9.60;75.30;;;9.01;60.78;94795.56;5021424;28;20184;-79
2021/10/13 00:47:46;;;;;;;5.93;4.40;;;9.60;75.30;;;8.96;60.57;94796.94;5021377;28;20224;-80
2021/10/13 00:50:13;;;;;;;4.82;4.32;;;9.60;75.30;;;9.00;60.91;94796.59;5053698;28;20242;-80
2021/10/13 00:52:43;;;;;;;5.35;4.57;;;9.60;75.30;;;8.97;60.83;94802.97;5054769;28;20228;-80
2021/10/13 00:55:20;;;;;;;5.75;4.72;;;9.60;75.50;;;8.97;60.54;94801.19;5053934;28;20195;-79
2021/10/13 00:57:50;;;;;;;5.72;4.63;;;9.50;75.30;;;8.95;60.47;94805.78;5038516;28;20216;-79
2021/10/13 01:00:23;;;;;;;5.80;4.40;;;9.50;75.00;;;8.91;60.53;94804.53;5037752;28;20231;-79
2021/10/13 01:03:11;;;;;;;5.80;4.43;;;9.50;75.40;;;8.86;60.60;94799.03;5054318;28;20266;-80
2021/10/13 01:05:48;;;;;;;5.07;4.57;;;9.50;75.40;;;8.87;60.53;94808.50;5054089;28;20712;-79
2021/10/13 01:08:58;;;;;;;5.75;5.10;;;9.50;75.40;;;8.82;60.42;94813.47;5053135;28;21465;-80
2021/10/13 01:12:08;;;;;;;5.20;4.35;;;9.50;75.40;;;8.73;60.67;94814.59;5053702;28;20215;-79
2021/10/13 01:15:03;;;;;;;5.35;4.55;;;9.40;75.20;;;8.68;60.51;94820.34;5086036;28;20615;-80
2021/10/13 01:17:42;;;;;;;6.10;4.70;;;9.40;75.30;;;8.62;60.47;94829.72;5044839;28;20618;-78
2021/10/13 01:20:50;;;;;;;7.22;4.88;;;9.30;74.70;;;8.49;60.54;94835.59;5037197;28;20195;-80
2021/10/13 01:23:31;;;;;;;5.80;5.13;;;9.30;75.00;;;8.44;60.51;94837.09;5037241;28;20200;-79
2021/10/13 01:26:26;;;;;;;6.95;4.97;;;9.20;74.80;;;8.32;60.36;94832.31;5053409;28;20577;-80
2021/10/13 01:29:01;;;;;;;5.60;5.00;;;9.20;74.60;;;8.27;60.53;94839.06;5067867;28;20197;-79
2021/10/13 01:31:44;;;;;;;6.38;4.93;;;9.10;74.50;;;8.17;60.26;94847.97;5035131;28;20251;-79
2021/10/13 01:34:25;;;;;;;7.88;5.05;;;9.10;74.90;;;8.05;60.35;94843.38;5053486;28;20246;-80
2021/10/13 01:37:05;;;;;;;7.50;5.25;;;9.00;74.70;;;8.00;60.75;94852.53;5033153;28;20225;-80
2021/10/13 01:39:32;;;;;;;6.22;5.20;;;8.90;74.70;;;7.93;60.63;94849.00;5017174;28;20702;-80
2021/10/13 01:42:05;;;;;;;6.28;5.57;;;8.80;74.40;;;7.91;60.84;94851.00;5033981;28;20281;-80
2021/10/13 01:44:38;;;;;;;6.65;5.07;;;8.70;75.00;;;7.89;60.92;94854.78;5037725;28;20202;-81
2021/10/13 01:47:07;;;;;;;7.65;5.28;;;8.70;75.00;;;7.87;61.04;94854.94;5035909;28;20219;-79
2021/10/13 01:49:36;;;;;;;5.78;4.93;;;8.70;75.00;;;7.93;60.88;94858.66;5052754;28;20679;-78
2021/10/13 01:52:05;;;;;;;5.40;4.88;;;8.60;74.90;;;7.93;60.77;94861.25;5049078;28;20694;-79
2021/10/13 01:54:36;;;;;;;6.10;5.35;;;8.60;74.90;;;7.93;60.75;94864.66;5019356;28;20291;-78
2021/10/13 01:57:06;;;;;;;7.15;5.80;;;8.60;74.90;;;7.95;60.82;94859.28;5036065;28;20247;-79
2021/10/13 01:59:37;;;;;;;7.35;5.65;;;8.60;74.90;;;7.95;60.82;94873.16;5036548;28;20670;-79
2021/10/13 02:02:05;;;;;;;6.57;5.82;;;8.60;74.90;;;7.88;61.02;94866.19;5053120;28;20274;-79
2021/10/13 02:04:37;;;;;;;8.68;6.07;;;8.60;74.90;;;7.85;61.06;94873.41;5036031;28;20281;-79
2021/10/13 02:07:07;;;;;;;6.60;5.18;;;8.60;74.90;;;7.84;61.02;94866.53;5053161;28;20216;-79
2021/10/13 02:09:35;;;;;;;6.80;5.97;;;8.60;74.90;;;7.82;60.91;94875.53;5035621;28;20242;-78
2021/10/13 02:12:04;;;;;;;7.25;5.38;;;8.50;74.80;;;7.76;60.91;94879.66;5036430;28;20226;-78
2021/10/13 02:14:36;;;;;;;7.03;5.80;;;8.50;74.80;;;7.73;60.97;94889.66;5052885;28;20199;-79
2021/10/13 02:17:07;;;;;;;6.93;5.57;;;8.50;74.80;;;7.69;61.31;94889.19;5035951;28;20232;-79
2021/10/13 02:19:37;;;;;;;6.28;5.22;;;8.40;74.80;;;7.69;61.28;94899.63;5036305;28;20235;-79
2021/10/13 02:22:05;;;;;;;6.18;5.25;;;8.40;74.80;;;7.69;61.36;94902.25;5036033;28;20270;-79
2021/10/13 02:24:48;;;;;;;7.55;6.28;;;8.40;74.80;;;7.68;61.09;94903.22;5032445;28;20567;-79
2021/10/13 02:27:48;;;;;;;9.02;6.47;;;8.40;75.30;;;7.68;61.23;94909.25;5053241;28;20705;-78
2021/10/13 02:30:15;;;;;;;7.57;5.50;;;8.40;75.20;;;7.69;61.39;94900.44;5068778;28;20200;-79
2021/10/13 02:32:42;;;;;;;6.88;5.47;;;8.40;74.80;;;7.69;61.47;94908.28;5035814;28;20612;-79
2021/10/13 02:35:10;;;;;;;6.97;5.70;;;8.40;74.90;;;7.71;61.41;94912.50;5019499;28;20677;-79
2021/10/13 02:37:37;;;;;;;6.88;5.93;;;8.30;74.80;;;7.71;61.44;94917.72;5053074;28;20306;-80
2021/10/13 02:40:07;;;;;;;6.57;5.30;;;8.40;74.90;;;7.69;61.18;94921.31;5036031;28;20238;-79
2021/10/13 02:42:36;;;;;;;7.35;5.47;;;8.30;75.00;;;7.73;61.19;94923.59;5019523;28;20251;-79
2021/10/13 02:45:05;;;;;;;7.20;5.30;;;8.30;75.10;;;7.75;60.90;94924.22;5051930;28;20666;-79
2021/10/13 02:47:58;;;;;;;7.82;6.00;;;8.30;75.20;;;7.77;61.34;94930.09;5053651;28;20263;-79
2021/10/13 02:50:45;;;;;;;11.27;6.18;;;8.40;75.60;;;7.75;61.30;94937.28;5027483;28;20627;-80
2021/10/13 02:53:23;;;;;;;7.32;6.18;;;8.40;75.30;;;7.78;61.31;94934.34;5035562;28;20289;-79
2021/10/13 02:55:55;;;;;;;7.65;6.53;;;8.40;75.10;;;7.80;61.12;94940.16;5035858;28;20227;-79
2021/10/13 02:58:41;;;;;;;7.20;5.82;;;8.50;75.20;;;7.78;61.19;94937.75;5035029;28;20310;-79
2021/10/13 03:01:16;;;;;;;7.97;6.68;;;8.40;75.20;;;7.74;60.95;94933.88;5053130;28;20228;-80
2021/10/13 03:04:21;;;;;;;7.05;6.35;;;8.40;75.90;;;7.69;61.58;94938.81;5019020;28;20222;-79
2021/10/13 03:06:58;;;;;;;8.18;6.28;;;8.40;75.20;;;7.68;61.21;94942.38;5025750;28;20250;-81
2021/10/13 03:09:32;;;;;;;7.90;6.10;;;8.40;75.10;;;7.66;61.10;94933.91;5051714;28;20282;-81
2021/10/13 03:12:03;;;;;;;7.20;5.68;;;8.40;75.00;;;7.64;61.22;94941.09;5035182;28;20223;-79
2021/10/13 03:14:32;;;;;;;7.82;5.80;;;8.30;74.70;;;7.57;60.95;94933.16;5048760;28;20212;-79
2021/10/13 03:17:01;;;;;;;8.45;5.80;;;8.30;75.50;;;7.57;61.40;94937.53;5051100;28;20219;-79
2021/10/13 03:19:28;;;;;;;7.80;6.10;;;8.30;74.70;;;7.50;61.32;94942.66;5035075;28;20226;-79
2021/10/13 03:21:56;;;;;;;7.38;6.07;;;8.30;74.70;;;7.43;60.98;94939.09;5051096;28;20220;-81
2021/10/13 03:24:23;;;;;;;7.72;5.72;;;8.20;74.60;;;7.35;60.82;94956.41;5051173;28;20196;-79
2021/10/13 03:26:51;;;;;;;10.68;7.60;;;8.20;74.70;;;7.26;61.13;94957.44;5051353;28;20215;-80
2021/10/13 03:29:18;;;;;;;7.07;6.38;;;8.10;74.60;;;7.21;61.37;94967.56;5034786;28;20219;-79
2021/10/13 03:31:46;;;;;;;9.95;6.97;;;8.00;74.50;;;7.18;62.03;94970.53;5031240;28;20220;-80
2021/10/13 03:34:16;;;;;;;8.68;7.63;;;8.00;74.80;;;7.18;62.03;94966.13;5053363;28;20228;-78
2021/10/13 03:36:49;;;;;;;8.27;6.88;;;7.90;75.10;;;7.15;62.06;94978.69;5022886;28;20239;-81
2021/10/13 03:39:18;;;;;;;9.05;7.07;;;7.90;75.20;;;7.09;62.40;94971.53;5034528;28;20232;-81
2021/10/13 03:41:46;;;;;;;10.30;7.15;;;7.90;75.10;;;7.13;61.90;94978.03;5034089;28;20354;-78
2021/10/13 03:44:13;;;;;;;8.75;6.75;;;7.90;75.10;;;7.14;62.13;94985.69;5050878;28;20709;-80
2021/10/13 03:46:40;;;;;;;8.85;7.40;;;7.90;75.30;;;7.15;61.94;94989.94;5050997;28;20298;-80
2021/10/13 03:49:08;;;;;;;9.50;8.15;;;7.90;75.30;;;7.14;62.47;94987.47;5051090;28;20219;-80
2021/10/13 03:51:35;;;;;;;9.70;7.28;;;7.90;75.50;;;7.16;62.10;94991.53;5047868;28;20224;-79
2021/10/13 03:54:03;;;;;;;8.70;7.10;;;7.90;75.50;;;7.19;62.20;94993.84;5034165;28;20192;-79
2021/10/13 03:56:32;;;;;;;10.25;7.47;;;7.80;75.50;;;7.19;62.00;95000.84;5034224;28;20212;-79
2021/10/13 03:59:00;;;;;;;10.77;8.13;;;7.90;75.50;;;7.16;62.43;95001.97;5051067;28;20232;-79
2021/10/13 04:01:27;;;;;;;13.07;9.40;;;7.90;75.50;;;7.11;62.31;94998.25;5049582;28;20273;-79
2021/10/13 04:03:55;;;;;;;12.15;9.20;;;7.90;75.60;;;7.14;62.59;95006.56;5033426;28;20199;-79
2021/10/13 04:06:22;;;;;;;11.60;9.18;;;7.80;75.50;;;7.10;62.50;95007.88;5050382;28;20712;-79
2021/10/13 04:08:51;;;;;;;11.25;8.25;;;7.80;75.60;;;7.09;62.48;95008.03;5050752;28;20649;-81
2021/10/13 04:11:18;;;;;;;9.85;7.88;;;7.80;75.60;;;7.07;62.31;95010.81;5034090;28;20327;-81
2021/10/13 04:13:49;;;;;;;9.95;8.00;;;7.80;75.60;;;7.09;62.29;95015.88;5050228;28;20231;-81
2021/10/13 04:16:16;;;;;;;10.77;8.55;;;7.90;75.70;;;7.04;62.34;95016.38;5050988;28;20759;-81
2021/10/13 04:18:44;;;;;;;13.18;9.48;;;7.80;75.70;;;7.07;63.06;95026.47;5054993;28;20222;-80
2021/10/13 04:21:11;;;;;;;9.73;8.07;;;7.80;75.80;;;7.09;62.55;95041.94;5054202;28;20273;-81
2021/10/13 04:23:39;;;;;;;8.85;7.93;;;7.80;75.70;;;7.09;62.59;95039.34;5034885;28;20714;-81
2021/10/13 04:26:06;;;;;;;10.02;8.98;;;7.80;75.80;;;7.04;62.72;95030.22;5029943;28;20255;-81
2021/10/13 04:28:33;;;;;;;11.15;8.30;;;7.80;75.90;;;7.07;62.48;95042.13;5054363;28;20658;-81
2021/10/13 04:31:00;;;;;;;12.02;8.38;;;7.80;75.80;;;7.06;62.96;95040.50;5054226;28;20291;-80
2021/10/13 04:33:28;;;;;;;10.93;8.02;;;7.70;75.70;;;7.02;62.84;95040.00;5032579;28;20196;-80
2021/10/13 04:35:55;;;;;;;11.00;7.40;;;7.70;75.80;;;7.00;62.62;95039.34;5050639;28;20575;-81
2021/10/13 04:38:22;;;;;;;9.52;7.63;;;7.70;75.70;;;6.97;63.13;95050.13;5050992;28;20232;-80
2021/10/13 04:40:49;;;;;;;9.93;7.85;;;7.70;75.80;;;6.95;62.45;95054.69;5070792;28;20202;-81
2021/10/13 04:43:16;;;;;;;11.38;7.72;;;7.80;75.90;;;6.96;63.24;95053.72;5018080;28;20197;-81
2021/10/13 04:45:44;;;;;;;9.52;8.00;;;7.80;76.00;;;6.95;63.13;95049.47;5050740;28;20196;-80
2021/10/13 04:48:11;;;;;;;10.30;7.07;;;7.70;76.10;;;6.95;63.00;95049.47;5068732;28;20647;-81
2021/10/13 04:50:39;;;;;;;9.18;7.50;;;7.70;76.00;;;6.94;63.01;95050.44;5035671;28;20196;-80
2021/10/13 04:53:06;;;;;;;9.63;6.88;;;7.70;76.00;;;6.94;63.07;95050.44;5053505;28;20236;-82
2021/10/13 04:55:33;;;;;;;10.10;7.57;;;7.70;75.90;;;6.92;63.40;95059.41;5037422;28;20287;-80
2021/10/13 04:58:01;;;;;;;9.23;6.82;;;7.60;75.90;;;6.88;62.83;95057.16;5036881;28;20290;-82
2021/10/13 05:00:28;;;;;;;7.93;6.85;;;7.60;75.80;;;6.87;62.96;95068.56;5054220;28;20228;-81
2021/10/13 05:02:55;;;;;;;9.43;6.97;;;7.70;75.90;;;6.85;62.61;95073.13;5036935;28;20440;-80
2021/10/13 05:05:24;;;;;;;8.55;7.20;;;7.60;75.90;;;6.87;62.83;95076.38;5037795;28;20200;-81
2021/10/13 05:07:52;;;;;;;9.70;7.43;;;7.60;76.00;;;6.87;63.05;95078.16;5050698;28;20587;-81
2021/10/13 05:10:19;;;;;;;8.40;6.28;;;7.60;76.00;;;6.86;62.58;95073.91;5066793;28;20193;-81
2021/10/13 05:12:46;;;;;;;7.95;6.97;;;7.60;76.00;;;6.87;62.89;95078.16;5047870;28;20223;-81
2021/10/13 05:15:13;;;;;;;9.93;7.13;;;7.60;76.10;;;6.91;62.73;95081.25;5037103;28;20206;-81
2021/10/13 05:17:41;;;;;;;9.75;7.18;;;7.60;76.10;;;6.87;62.72;95078.16;5036514;28;20219;-81
2021/10/13 05:20:09;;;;;;;10.60;7.05;;;7.60;76.20;;;6.92;62.94;95093.31;5053390;28;20225;-81
2021/10/13 05:22:37;;;;;;;8.23;7.00;;;7.60;76.20;;;6.91;62.98;95094.28;5017231;28;20694;-81
2021/10/13 05:25:06;;;;;;;8.63;7.20;;;7.60;76.10;;;6.89;63.03;95105.69;5048742;28;20196;-80
2021/10/13 05:27:33;;;;;;;8.27;6.53;;;7.60;76.10;;;6.91;62.79;95105.56;5033695;28;20581;-80
2021/10/13 05:30:03;;;;;;;7.75;6.95;;;7.60;76.10;;;6.94;62.60;95110.44;5064392;28;20223;-80
2021/10/13 05:32:30;;;;;;;10.52;6.75;;;7.60;76.20;;;6.89;63.03;95113.50;5061408;28;20232;-80
2021/10/13 05:34:59;;;;;;;9.60;7.43;;;7.70;76.30;;;6.92;62.91;95120.22;5047124;28;20203;-81
2021/10/13 05:37:26;;;;;;;9.63;7.10;;;7.60;76.20;;;6.95;62.94;95122.50;5053377;28;20243;-81
2021/10/13 05:39:53;;;;;;;7.95;6.97;;;7.60;76.20;;;6.96;62.91;95131.94;5017135;28;20270;-80
2021/10/13 05:42:20;;;;;;;9.40;6.80;;;7.60;76.30;;;7.00;62.51;95137.66;5053003;28;20216;-81
2021/10/13 05:44:48;;;;;;;8.63;6.85;;;7.60;76.30;;;7.01;62.89;95129.66;5052421;28;20200;-82
2021/10/13 05:47:15;;;;;;;7.68;6.68;;;7.70;76.40;;;7.07;62.75;95133.41;5036798;28;20227;-81
2021/10/13 05:49:42;;;;;;;6.68;5.93;;;7.70;77.20;;;7.08;62.80;95134.22;5053003;28;20556;-81
2021/10/13 05:52:09;;;;;;;9.27;7.35;;;7.70;76.40;;;7.10;62.87;95138.28;5032209;28;20224;-78
2021/10/13 05:54:36;;;;;;;8.38;7.13;;;7.70;76.30;;;7.13;62.39;95137.97;5016903;28;20204;-78
2021/10/13 05:57:05;;;;;;;9.07;7.13;;;7.70;76.30;;;7.14;62.95;95147.44;5050746;28;20294;-78
2021/10/13 05:59:35;;;;;;;8.32;7.15;;;7.80;76.30;;;7.14;62.56;95141.38;5025913;28;20275;-82
2021/10/13 06:02:03;;;;;;;9.32;7.85;;;7.80;76.40;;;7.11;62.81;95145.13;5033088;28;20228;-80
2021/10/13 06:04:30;;;;;;;9.82;7.80;;;7.80;76.30;;;7.10;63.13;95151.31;5036126;28;20207;-79
2021/10/13 06:06:58;;;;;;;9.45;7.78;;;7.80;76.30;;;7.07;62.92;95151.66;5069745;28;20208;-78
2021/10/13 06:09:27;;;;;;;9.43;7.90;;;7.90;76.30;;;7.07;62.77;95153.44;5085553;28;20648;-78
2021/10/13 06:11:54;;;;;;;9.30;7.20;;;7.80;76.20;;;7.02;63.04;95159.16;5069056;28;20211;-81
2021/10/13 06:14:21;;;;;;;10.65;7.20;;;7.70;76.10;;;7.03;62.96;95166.81;5031623;28;20641;-80
2021/10/13 06:16:48;;;;;;;9.80;7.88;;;7.70;76.20;;;7.09;63.05;95167.16;5032758;28;20314;-80
2021/10/13 06:19:16;;;;;;;10.07;7.65;;;7.70;76.40;;;7.16;63.31;95170.72;5065588;28;20299;-80
2021/10/13 06:21:43;;;;;;;8.70;7.65;;;7.80;76.60;;;7.25;63.23;95172.38;5045260;28;20310;-81
2021/10/13 06:24:10;;;;;;;10.32;7.70;;;7.80;76.70;;;7.33;63.31;95172.34;5051630;28;20216;-80
2021/10/13 06:26:37;;;;;;;8.60;7.40;;;7.80;76.90;;;7.45;63.20;95172.00;5052413;28;20710;-80
2021/10/13 06:29:05;;;;;;;9.57;7.68;;;7.90;77.00;;;7.57;63.12;95181.13;5018375;28;20283;-80
2021/10/13 06:31:32;;;;;;;8.13;7.20;;;7.90;77.20;;;7.68;63.16;95178.16;5035464;28;20566;-79
2021/10/13 06:34:01;;;;;;;8.45;7.07;;;8.00;77.20;;;7.76;62.81;95192.16;5035911;28;20217;-78
2021/10/13 06:36:28;;;;;;;10.25;7.80;;;8.10;77.20;;;7.81;62.63;95187.25;5031674;28;20714;-78
2021/10/13 06:38:56;;;;;;;11.90;8.18;;;8.20;77.00;;;7.86;62.78;95192.81;5032397;28;20512;-78
2021/10/13 06:41:26;;;;;;;11.65;7.90;;;8.20;76.90;;;7.84;62.42;95192.94;5014826;28;20283;-79
2021/10/13 06:43:53;;;;;;;10.85;7.95;;;8.30;76.80;;;7.87;62.49;95191.00;5037805;28;20245;-79
2021/10/13 06:46:21;;;;;;;9.55;7.55;;;8.30;76.80;;;7.93;62.67;95198.97;5051272;28;20215;-79
2021/10/13 06:48:48;;;;;;;12.25;7.28;;;8.40;76.90;;;7.99;62.69;95189.66;5051769;28;20196;-79
2021/10/13 06:51:15;;;;;;;7.60;6.43;;;8.40;76.90;;;8.10;62.69;95198.91;5051993;28;20216;-78
2021/10/13 06:53:46;;;;;;;11.20;6.90;;;8.50;76.90;;;8.13;62.55;95209.00;5051773;28;20649;-78
2021/10/13 06:56:15;;;;;;;10.45;7.45;;;8.50;76.70;;;8.14;61.98;95203.66;5015802;28;20220;-79
2021/10/13 06:58:42;;;;;;;11.95;6.65;;;8.60;76.60;;;8.11;62.21;95203.97;5035332;28;20195;-80
2021/10/13 07:01:10;;;;;;;7.85;5.97;;;8.60;76.50;;;8.15;62.26;95207.88;5051015;28;20299;-79
2021/10/13 07:03:37;;;;;;;10.50;6.70;;;8.60;76.50;;;8.15;62.02;95220.13;5034066;28;20207;-77
2021/10/13 07:06:04;;;;;;;9.52;6.95;;;8.60;77.10;;;8.14;62.26;95211.47;5018616;28;20227;-78
2021/10/13 07:08:31;;;;;;;8.27;6.85;;;8.60;76.20;;;8.08;62.32;95208.72;5035021;28;20595;-78
2021/10/13 07:10:58;;;;;;;9.80;6.90;;;8.70;76.20;;;8.08;62.25;95222.63;5035195;28;20719;-79
2021/10/13 07:13:25;;;;;;;7.93;6.63;;;8.70;76.10;;;8.08;61.98;95224.38;5034343;28;20671;-78
2021/10/13 07:15:52;;;;;;;9.27;6.78;;;8.70;76.20;;;8.08;61.92;95221.78;5034218;28;20258;-79
2021/10/13 07:18:20;;;;;;;8.18;6.85;;;8.70;76.20;;;8.07;62.47;95220.97;5048057;28;20201;-78
2021/10/13 07:20:47;;;;;;;8.93;6.78;;;8.70;76.20;;;8.09;62.51;95228.63;5048309;28;20282;-78
2021/10/13 07:23:14;;;;;;;10.13;6.95;;;8.70;76.10;;;8.11;62.07;95229.28;5020704;28;20184;-78
2021/10/13 07:25:41;;;;;;;9.40;6.63;;;8.60;76.10;;;8.13;61.98;95233.38;5034875;28;20235;-78
2021/10/13 07:28:10;;;;;;;8.27;6.38;;;8.70;76.20;;;8.14;61.96;95236.78;5051185;28;20192;-79
2021/10/13 07:30:37;;;;;;;8.05;6.25;;;8.70;76.20;;;8.14;62.10;95242.00;5015515;28;20204;-78
2021/10/13 07:33:05;;;;;;;8.20;7.07;;;8.70;76.10;;;8.17;62.11;95244.28;5058292;28;20284;-78
2021/10/13 07:35:34;;;;;;;8.75;6.88;;;8.70;76.30;;;8.18;62.21;95243.31;5048913;28;20207;-78
2021/10/13 07:38:02;;;;;;;10.07;7.18;;;8.70;76.50;;;8.23;62.26;95238.38;5034638;28;20192;-78
2021/10/13 07:40:32;;;;;;;9.93;6.60;;;8.70;76.50;;;8.28;62.45;95241.31;5034492;28;20721;-79
2021/10/13 07:42:59;;;;;;;8.88;6.63;;;8.80;76.50;;;8.34;62.40;95245.06;5018471;28;20207;-78
2021/10/13 07:45:27;;;;;;;8.60;7.57;;;8.80;76.60;;;8.36;62.33;95245.72;5051425;28;20200;-78
2021/10/13 07:47:54;;;;;;;7.78;6.63;;;8.80;76.60;;;8.38;62.19;95241.09;5050851;28;20247;-79
2021/10/13 07:50:22;;;;;;;8.45;6.80;;;8.90;76.50;;;8.37;62.05;95242.09;5050690;28;20196;-77
2021/10/13 07:52:49;;;;;;;7.53;6.30;;;8.90;76.40;;;8.44;61.86;95260.53;5034353;28;20299;-78
2021/10/13 07:55:16;;;;;;;8.13;6.03;;;9.00;76.50;;;8.49;61.90;95261.69;5014892;28;20249;-79
2021/10/13 07:57:43;;;;;;;8.82;6.10;;;8.90;76.40;;;8.58;62.07;95267.69;5063269;28;20705;-78
2021/10/13 08:00:12;;;;;;;7.72;5.72;;;9.00;76.60;;;8.61;62.21;95254.25;5048025;28;20258;-79
2021/10/13 08:02:49;;;;;;;6.85;5.68;;;9.00;76.60;;;8.76;62.33;95257.00;5064190;28;20272;-77
2021/10/13 08:05:19;;;;;;;7.78;5.70;;;9.10;76.90;;;8.87;62.14;95257.56;5064407;28;20223;-81
2021/10/13 08:07:47;;;;;;;7.70;5.68;;;9.20;76.90;;;9.00;62.01;95263.06;5032072;28;20620;-79
2021/10/13 08:10:15;;;;;;;7.70;5.57;;;9.20;76.90;;;9.12;62.08;95266.09;5033458;28;20636;-80
2021/10/13 08:12:42;;;;;;;9.25;5.70;;;9.30;77.00;;;9.20;62.19;95270.44;5034474;28;20211;-81
2021/10/13 08:15:10;;;;;;;7.18;5.32;;;9.40;76.90;;;9.25;61.92;95266.34;5055125;28;20717;-81
2021/10/13 08:17:38;;;;;;;6.97;5.75;;;9.50;77.30;;;9.34;61.62;95263.63;5036681;28;20235;-80
2021/10/13 08:20:08;;;;;;;6.97;5.28;;;9.60;76.60;;;9.38;61.55;95260.50;5017234;28;20756;-79
2021/10/13 08:22:35;;;;;;;6.00;5.18;;;9.60;76.50;;;9.41;61.38;95254.09;5050968;28;20245;-79
2021/10/13 08:25:05;;;;;;;6.78;5.05;;;9.70;76.30;;;9.48;61.18;95262.88;5034473;28;20188;-78
2021/10/13 08:27:34;;;;;;;6.00;5.05;;;9.70;76.30;;;9.51;61.17;95256.47;5050481;28;20766;-78
2021/10/13 08:30:03;;;;;;;7.38;4.90;;;9.80;76.20;;;9.54;60.77;95270.00;5050847;28;20190;-80
2021/10/13 08:32:30;;;;;;;6.30;4.88;;;9.90;75.80;;;9.53;61.00;95255.31;5033951;28;20282;-80
2021/10/13 08:34:57;;;;;;;7.03;5.78;;;9.90;75.70;;;9.49;60.83;95256.66;5049725;28;20262;-78
2021/10/13 08:37:25;;;;;;;7.13;5.63;;;9.90;75.70;;;9.45;60.93;95245.72;5050645;28;20242;-78
2021/10/13 08:39:52;;;;;;;9.35;6.35;;;9.90;75.70;;;9.40;60.59;95248.06;5030598;28;20686;-78
2021/10/13 08:42:26;;;;;;;8.13;6.00;;;9.90;75.70;;;9.39;60.61;95251.66;5023548;28;20235;-78
2021/10/13 08:44:54;;;;;;;6.18;5.18;;;9.90;75.70;;;9.49;61.19;95255.84;5061088;28;20198;-79
2021/10/13 08:47:22;;;;;;;6.68;5.25;;;9.90;75.70;;;9.60;60.99;95258.03;5018999;28;20216;-77
2021/10/13 08:49:51;;;;;;;6.50;4.97;;;9.90;75.70;;;9.69;61.10;95249.13;5027368;28;20228;-78
2021/10/13 08:52:18;;;;;;;5.20;4.63;;;10.00;74.80;;;9.80;61.11;95262.78;5049802;28;20213;-79
2021/10/13 08:54:45;;;;;;;6.72;4.80;;;10.00;74.80;;;9.92;60.67;95274.44;5031067;28;20611;-78
2021/10/13 08:57:18;;;;;;;6.38;3.85;;;10.10;74.70;;;9.99;60.08;95258.84;5033732;28;20726;-78
2021/10/13 08:59:48;;;;;;;6.22;3.97;;;10.20;74.70;;;10.06;59.99;95259.75;5050173;28;20571;-79
2021/10/13 09:02:17;;;;;;;6.30;3.90;;;10.20;74.70;;;10.08;58.71;95258.56;5050372;28;20223;-79
2021/10/13 09:05:08;;;;;;;4.95;3.58;;;10.30;74.30;;;10.12;58.88;95261.63;5033906;28;20192;-79
2021/10/13 09:07:37;;;;;;;5.07;3.55;;;10.40;73.80;;;10.10;58.92;95259.19;5053877;28;20283;-79
2021/10/13 09:10:08;;;;;;;5.18;3.50;;;10.50;73.80;;;10.12;59.28;95259.03;5036467;28;20646;-79
2021/10/13 09:12:39;;;;;;;4.32;3.40;;;10.50;74.40;;;10.09;59.17;95257.56;5037227;28;20694;-79
2021/10/13 09:15:10;;;;;;;3.95;3.28;;;10.50;73.50;;;10.05;59.28;95255.50;5054058;28;20232;-79
2021/10/13 09:18:03;;;;;;;4.90;3.60;;;10.50;73.50;;;10.04;59.21;95251.25;5049759;28;20232;-79
2021/10/13 09:20:41;;;;;;;3.58;2.80;;;10.40;73.40;;;10.06;59.12;95250.06;5042245;28;20220;-79
2021/10/13 09:23:32;;;;;;;3.85;3.00;;;10.40;73.20;;;10.09;59.49;95251.50;5053673;28;20545;-79
2021/10/13 09:26:01;;;;;;;3.92;2.65;;;10.40;73.40;;;10.19;59.24;95262.56;5053391;28;20224;-78
2021/10/13 09:28:29;;;;;;;3.60;2.70;;;10.50;73.60;;;10.27;59.38;95253.78;5053349;28;20200;-79
2021/10/13 09:31:09;;;;;;;3.80;2.70;;;10.50;73.70;;;10.34;59.06;95267.78;5036133;28;20713;-78
2021/10/13 09:33:36;;;;;;;4.55;3.40;;;10.50;73.50;;;10.38;58.89;95268.28;5036658;28;20195;-79
2021/10/13 09:36:13;;;;;;;3.47;2.83;;;10.60;73.40;;;10.43;58.81;95273.78;5037119;28;20310;-79
2021/10/13 09:38:45;;;;;;;5.60;3.70;;;10.60;73.40;;;10.48;58.90;95271.41;5052995;28;20200;-79
2021/10/13 09:41:13;;;;;;;3.55;3.22;;;10.70;73.50;;;10.58;58.98;95271.13;5036878;28;20232;-79
2021/10/13 09:43:40;;;;;;;4.18;3.10;;;10.70;73.80;;;10.66;59.20;95278.09;5035848;28;20286;-79
2021/10/13 09:46:16;;;;;;;5.35;3.30;;;10.80;73.80;;;10.70;58.61;95261.00;5021635;28;20701;-79
2021/10/13 09:48:58;;;;;;;3.67;2.80;;;10.90;73.20;;;10.71;58.59;95273.91;5053661;28;20569;-79
2021/10/13 09:51:25;;;;;;;3.25;2.47;;;11.00;73.20;;;10.72;58.19;95280.78;5036031;28;20759;-77
2021/10/13 09:53:56;;;;;;;2.90;2.38;;;11.00;73.00;;;10.73;58.48;95276.38;5053367;28;20192;-78
2021/10/13 09:56:35;;;;;;;3.67;2.58;;;11.00;73.10;;;10.79;58.70;95272.19;5053303;28;20248;-79
2021/10/13 09:59:18;;;;;;;3.03;2.70;;;11.10;73.10;;;10.96;59.06;95278.03;5062526;28;20196;-77
2021/10/13 10:01:58;;;;;;;2.55;2.35;;;11.10;73.30;;;11.09;58.76;95278.19;5081322;28;20311;-78
2021/10/13 10:04:28;;;;;;;4.75;2.10;;;11.20;73.40;;;11.19;57.45;95276.09;5053071;28;20191;-78
2021/10/13 10:06:58;;;;;;;2.90;2.47;;;11.40;73.20;;;11.26;57.04;95284.00;5019710;28;20223;-78
2021/10/13 10:09:27;;;;;;;3.55;2.10;;;11.40;72.60;;;11.31;56.61;95281.63;5035333;28;20605;-78
2021/10/13 10:12:08;;;;;;;2.25;1.80;;;11.40;72.10;;;11.33;56.42;95273.59;5048873;28;20213;-79
2021/10/13 10:14:43;;;;;;;3.53;1.80;;;11.50;71.70;;;11.38;56.29;95276.47;5049535;28;20196;-78
2021/10/13 10:17:15;;;;;;;2.10;1.48;;;11.60;72.00;;;11.51;56.24;95273.13;5049463;28;20266;-78
2021/10/13 10:19:45;;;;;;;1.60;1.50;;;11.60;71.60;;;11.58;56.11;95267.94;5051525;28;20563;-79
2021/10/13 10:22:21;;;;;;;1.30;1.20;;;11.70;71.60;;;11.63;54.52;95270.81;5036303;28;20223;-79
2021/10/13 10:24:55;;;;;;;2.05;1.38;;;11.70;70.60;;;11.65;53.63;95276.69;5032856;28;20685;-79
2021/10/13 10:27:36;;;;;;;1.60;1.35;;;11.80;69.90;;;11.67;53.67;95278.13;5048197;28;20303;-79
2021/10/13 10:30:09;;;;;;;2.45;1.30;;;11.80;69.60;;;11.76;52.85;95273.53;5031591;28;20203;-78
2021/10/13 10:32:44;;;;;;;2.38;1.42;;;11.90;69.50;;;11.91;53.89;95283.97;5052422;28;20211;-77
2021/10/13 10:35:17;;;;;;;1.60;1.50;;;11.90;69.70;;;12.07;54.10;95276.84;5051903;28;20194;-79
2021/10/13 10:37:47;;;;;;;1.58;1.45;;;12.10;70.40;;;12.27;53.90;95277.78;5019443;28;20219;-78
2021/10/13 10:40:31;;;;;;;1.55;1.45;;;12.10;70.20;;;12.43;53.83;95274.03;5051686;28;20285;-77
2021/10/13 10:43:06;;;;;;;1.55;1.20;;;12.20;70.30;;;12.55;53.63;95270.84;5050666;28;20286;-78
2021/10/13 10:45:48;;;;;;;1.50;1.27;;;12.40;70.10;;;12.56;52.94;95291.72;5051752;28;20211;-78